createdAt,value
2024-03-28T00:00:54.309Z,26.16
2024-03-28T00:01:51.885Z,26.13
2024-03-28T00:02:51.838Z,26.15
2024-03-28T00:03:51.807Z,26.13
2024-03-28T00:04:51.825Z,26.13
2024-03-28T00:05:51.812Z,26.13
2024-03-28T00:06:51.814Z,26.16
2024-03-28T00:07:51.817Z,26.15
2024-03-28T00:08:51.825Z,26.15
2024-03-28T00:09:51.805Z,26.15
2024-03-28T00:10:51.811Z,26.15
2024-03-28T00:11:51.832Z,26.13
2024-03-28T00:12:51.816Z,26.15
2024-03-28T00:13:51.810Z,26.15
2024-03-28T00:14:51.833Z,26.15
2024-03-28T00:15:51.823Z,26.16
2024-03-28T00:16:51.836Z,26.13
2024-03-28T00:17:51.815Z,26.16
2024-03-28T00:18:51.847Z,26.15
2024-03-28T00:19:51.853Z,26.16
2024-03-28T00:20:51.838Z,26.13
2024-03-28T00:21:51.841Z,26.15
2024-03-28T00:22:51.874Z,26.13
2024-03-28T00:23:51.842Z,26.13
2024-03-28T00:24:51.827Z,26.15
2024-03-28T00:25:51.850Z,26.15
2024-03-28T00:26:51.846Z,26.15
2024-03-28T00:27:51.863Z,26.15
2024-03-28T00:28:51.828Z,26.13
2024-03-28T00:29:51.842Z,26.15
2024-03-28T00:30:51.847Z,26.13
2024-03-28T00:31:51.878Z,26.15
2024-03-28T00:32:51.856Z,26.13
2024-03-28T00:33:51.841Z,26.13
2024-03-28T00:34:51.858Z,26.13
2024-03-28T00:35:51.859Z,26.13
2024-03-28T00:36:51.878Z,26.13
2024-03-28T00:37:51.863Z,26.13
2024-03-28T00:38:51.960Z,26.13
2024-03-28T00:39:52.014Z,26.13
2024-03-28T00:40:52.125Z,26.12
2024-03-28T00:41:52.286Z,26.13
2024-03-28T00:42:52.312Z,26.12
2024-03-28T00:43:52.394Z,26.12
2024-03-28T00:44:52.490Z,26.13
2024-03-28T00:45:52.539Z,26.13
2024-03-28T00:46:52.661Z,26.15
2024-03-28T00:47:52.720Z,26.13
2024-03-28T00:48:52.795Z,26.13
2024-03-28T00:49:52.898Z,26.10
2024-03-28T00:50:52.982Z,26.15
2024-03-28T00:51:53.064Z,26.15
2024-03-28T00:52:53.135Z,26.13
2024-03-28T00:53:53.245Z,26.13
2024-03-28T00:54:53.317Z,26.13
2024-03-28T00:55:55.751Z,26.12
2024-03-28T00:56:53.405Z,26.12
2024-03-28T00:57:53.431Z,26.15
2024-03-28T00:58:53.406Z,26.13
2024-03-28T00:59:53.452Z,26.12
2024-03-28T01:00:53.401Z,26.12
2024-03-28T01:01:53.446Z,26.13
2024-03-28T01:02:53.413Z,26.13
2024-03-28T01:03:53.455Z,26.10
2024-03-28T01:04:53.399Z,26.12
2024-03-28T01:05:53.392Z,26.13
2024-03-28T01:06:53.906Z,26.12
2024-03-28T01:08:41.631Z,26.09
2024-03-28T01:09:44.508Z,26.07
2024-03-28T01:10:41.644Z,26.09
2024-03-28T01:11:41.624Z,26.09
2024-03-28T01:12:41.637Z,26.10
2024-03-28T01:13:41.639Z,26.12
2024-03-28T01:14:41.649Z,26.10
2024-03-28T01:15:41.660Z,26.12
2024-03-28T01:16:41.678Z,26.10
2024-03-28T01:17:41.628Z,26.10
2024-03-28T01:18:41.633Z,26.10
2024-03-28T01:19:41.721Z,26.10
2024-03-28T01:20:41.688Z,26.10
2024-03-28T01:21:41.716Z,26.09
2024-03-28T01:22:41.672Z,26.10
2024-03-28T01:23:41.712Z,26.09
2024-03-28T01:24:41.663Z,26.10
2024-03-28T01:25:41.669Z,26.12
2024-03-28T01:26:41.674Z,26.09
2024-03-28T01:27:41.801Z,26.10
2024-03-28T01:28:41.671Z,26.10
2024-03-28T01:29:41.680Z,26.09
2024-03-28T01:30:41.648Z,26.10
2024-03-28T01:31:42.273Z,26.10
2024-03-28T01:32:41.714Z,26.13
2024-03-28T01:33:41.679Z,26.10
2024-03-28T01:34:41.701Z,26.07
2024-03-28T01:35:41.708Z,26.10
2024-03-28T01:36:41.696Z,26.10
2024-03-28T01:37:41.725Z,26.09
2024-03-28T01:38:41.668Z,26.07
2024-03-28T01:39:41.668Z,26.07
2024-03-28T01:40:41.667Z,26.09
2024-03-28T01:41:41.724Z,26.10
2024-03-28T01:42:41.699Z,26.10
2024-03-28T01:43:41.713Z,26.10
2024-03-28T01:44:41.703Z,26.10
2024-03-28T01:45:41.705Z,26.06
2024-03-28T01:46:45.789Z,26.09
2024-03-28T01:48:42.770Z,26.09
2024-03-28T01:49:41.807Z,26.09
2024-03-28T01:50:41.741Z,26.09
2024-03-28T01:51:41.702Z,26.09
2024-03-28T01:52:41.749Z,26.09
2024-03-28T01:53:41.714Z,26.09
2024-03-28T01:54:41.708Z,26.10
2024-03-28T01:55:41.715Z,26.10
2024-03-28T01:56:41.741Z,26.09
2024-03-28T01:57:41.749Z,26.09
2024-03-28T01:58:41.753Z,26.10
2024-03-28T01:59:41.749Z,26.07
2024-03-28T02:00:41.718Z,26.09
2024-03-28T02:01:41.771Z,26.07
2024-03-28T02:02:41.762Z,26.07
2024-03-28T02:03:41.735Z,26.07
2024-03-28T02:04:41.740Z,26.10
2024-03-28T02:05:41.744Z,26.10
2024-03-28T02:06:41.734Z,26.09
2024-03-28T02:07:41.753Z,26.07
2024-03-28T02:08:41.750Z,26.10
2024-03-28T02:09:41.832Z,26.09
2024-03-28T02:10:41.897Z,26.07
2024-03-28T02:11:41.980Z,26.10
2024-03-28T02:12:42.087Z,26.06
2024-03-28T02:13:42.160Z,26.07
2024-03-28T02:14:42.210Z,26.07
2024-03-28T02:15:42.318Z,26.07
2024-03-28T02:16:42.384Z,26.07
2024-03-28T02:17:42.492Z,26.07
2024-03-28T02:18:42.553Z,26.09
2024-03-28T02:19:42.651Z,26.04
2024-03-28T02:20:42.727Z,26.07
2024-03-28T02:21:42.791Z,26.06
2024-03-28T02:22:42.924Z,26.04
2024-03-28T02:23:42.956Z,26.06
2024-03-28T02:24:43.052Z,26.09
2024-03-28T02:25:43.195Z,26.09
2024-03-28T02:26:43.202Z,26.07
2024-03-28T02:27:43.304Z,26.07
2024-03-28T02:28:43.387Z,26.07
2024-03-28T02:29:43.460Z,26.06
2024-03-28T02:30:43.558Z,26.07
2024-03-28T02:31:43.662Z,26.06
2024-03-28T02:32:43.744Z,26.07
2024-03-28T02:33:43.829Z,26.04
2024-03-28T02:34:43.869Z,26.07
2024-03-28T02:35:43.989Z,26.07
2024-03-28T02:36:44.072Z,26.07
2024-03-28T02:37:44.159Z,26.06
2024-03-28T02:38:44.210Z,26.06
2024-03-28T02:39:44.302Z,26.07
2024-03-28T02:40:44.410Z,26.04
2024-03-28T02:41:44.501Z,26.06
2024-03-28T02:42:44.631Z,26.04
2024-03-28T02:43:44.671Z,26.09
2024-03-28T02:44:44.766Z,26.07
2024-03-28T02:45:44.831Z,26.04
2024-03-28T02:46:44.964Z,26.07
2024-03-28T02:47:44.988Z,26.04
2024-03-28T02:48:45.058Z,26.09
2024-03-28T02:49:45.111Z,26.07
2024-03-28T02:50:45.212Z,26.07
2024-03-28T02:51:45.299Z,26.07
2024-03-28T02:52:45.414Z,26.06
2024-03-28T02:53:45.432Z,26.03
2024-03-28T02:54:45.544Z,26.06
2024-03-28T02:55:45.646Z,26.06
2024-03-28T02:56:45.712Z,26.04
2024-03-28T02:57:45.869Z,26.06
2024-03-28T02:58:45.877Z,26.04
2024-03-28T02:59:45.960Z,26.06
2024-03-28T03:00:46.058Z,26.03
2024-03-28T03:01:46.128Z,26.04
2024-03-28T03:02:46.297Z,26.06
2024-03-28T03:03:46.293Z,26.03
2024-03-28T03:04:46.396Z,26.03
2024-03-28T03:05:46.460Z,26.04
2024-03-28T03:06:46.521Z,26.03
2024-03-28T03:07:46.619Z,26.06
2024-03-28T03:08:46.668Z,26.03
2024-03-28T03:09:46.767Z,26.06
2024-03-28T03:10:46.851Z,26.03
2024-03-28T03:11:46.971Z,26.06
2024-03-28T03:12:47.024Z,26.04
2024-03-28T03:13:47.111Z,26.04
2024-03-28T03:14:47.181Z,26.03
2024-03-28T03:15:47.263Z,26.04
2024-03-28T03:16:47.333Z,26.03
2024-03-28T03:17:47.409Z,26.06
2024-03-28T03:18:47.492Z,26.04
2024-03-28T03:19:47.579Z,26.03
2024-03-28T03:20:47.632Z,26.04
2024-03-28T03:21:47.715Z,26.03
2024-03-28T03:22:47.843Z,26.03
2024-03-28T03:23:49.639Z,26.03
2024-03-28T03:24:47.922Z,26.04
2024-03-28T03:25:47.983Z,26.06
2024-03-28T03:26:48.019Z,26.03
2024-03-28T03:27:48.080Z,26.03
2024-03-28T03:28:48.097Z,26.03
2024-03-28T03:29:48.303Z,26.04
2024-03-28T03:30:48.144Z,26.02
2024-03-28T03:31:48.220Z,26.04
2024-03-28T03:32:48.263Z,26.04
2024-03-28T03:33:48.288Z,26.02
2024-03-28T03:34:48.348Z,26.02
2024-03-28T03:35:48.396Z,26.04
2024-03-28T03:36:48.502Z,26.03
2024-03-28T03:37:48.541Z,26.03
2024-03-28T03:38:48.633Z,26.02
2024-03-28T03:39:48.809Z,26.03
2024-03-28T03:40:48.821Z,26.02
2024-03-28T03:41:48.879Z,26.04
2024-03-28T03:42:48.954Z,26.03
2024-03-28T03:43:49.038Z,26.04
2024-03-28T03:44:49.133Z,26.02
2024-03-28T03:45:49.179Z,26.02
2024-03-28T03:46:49.254Z,26.03
2024-03-28T03:47:49.325Z,26.03
2024-03-28T03:48:49.391Z,26.02
2024-03-28T03:49:49.486Z,26.00
2024-03-28T03:50:49.569Z,26.02
2024-03-28T03:51:49.715Z,26.02
2024-03-28T03:52:49.726Z,25.99
2024-03-28T03:53:49.805Z,26.02
2024-03-28T03:54:49.844Z,26.02
2024-03-28T03:55:50.050Z,26.00
2024-03-28T03:56:50.034Z,26.03
2024-03-28T03:57:50.327Z,26.00
2024-03-28T03:58:50.140Z,26.03
2024-03-28T03:59:50.255Z,26.02
2024-03-28T04:00:50.294Z,26.02
2024-03-28T04:01:50.396Z,26.02
2024-03-28T04:02:50.485Z,26.00
2024-03-28T04:03:50.582Z,26.00
2024-03-28T04:04:50.625Z,26.02
2024-03-28T04:05:50.706Z,25.99
2024-03-28T04:06:50.807Z,26.00
2024-03-28T04:07:50.853Z,26.00
2024-03-28T04:08:50.986Z,26.02
2024-03-28T04:09:51.037Z,26.00
2024-03-28T04:10:51.085Z,26.00
2024-03-28T04:11:51.205Z,26.00
2024-03-28T04:12:51.271Z,26.03
2024-03-28T04:13:51.357Z,26.02
2024-03-28T04:14:51.456Z,26.02
2024-03-28T04:15:51.503Z,25.99
2024-03-28T04:16:51.597Z,26.02
2024-03-28T04:17:51.709Z,26.00
2024-03-28T04:18:51.747Z,25.99
2024-03-28T04:19:51.859Z,25.99
2024-03-28T04:20:51.962Z,26.00
2024-03-28T04:21:52.033Z,26.00
2024-03-28T04:22:52.068Z,26.02
2024-03-28T04:23:52.176Z,26.00
2024-03-28T04:24:52.258Z,26.00
2024-03-28T04:25:52.374Z,25.97
2024-03-28T04:26:52.446Z,25.99
2024-03-28T04:27:52.517Z,26.00
2024-03-28T04:28:52.666Z,26.00
2024-03-28T04:30:01.565Z,25.99
2024-03-28T04:30:53.658Z,25.99
2024-03-28T04:31:52.666Z,26.00
2024-03-28T04:32:52.709Z,25.99
2024-03-28T04:33:52.646Z,25.97
2024-03-28T04:34:59.962Z,25.93
2024-03-28T04:36:00.020Z,25.97
2024-03-28T04:36:59.974Z,25.99
2024-03-28T04:37:59.979Z,25.96
2024-03-28T04:38:59.956Z,25.97
2024-03-28T04:39:59.958Z,25.99
2024-03-28T04:40:59.957Z,26.00
2024-03-28T04:41:59.997Z,26.00
2024-03-28T04:42:59.980Z,25.99
2024-03-28T04:43:59.992Z,25.97
2024-03-28T04:45:00.011Z,25.99
2024-03-28T04:45:59.984Z,25.99
2024-03-28T04:46:59.991Z,25.99
2024-03-28T04:47:59.998Z,25.99
2024-03-28T04:48:59.995Z,26.00
2024-03-28T04:49:59.993Z,25.99
2024-03-28T04:51:00.029Z,25.96
2024-03-28T04:52:00.004Z,25.99
2024-03-28T04:53:00.032Z,25.97
2024-03-28T04:53:59.982Z,25.97
2024-03-28T04:55:00.026Z,25.99
2024-03-28T04:56:00.040Z,25.99
2024-03-28T04:57:00.028Z,25.97
2024-03-28T04:58:00.051Z,25.96
2024-03-28T04:59:00.019Z,25.97
2024-03-28T05:00:00.059Z,25.96
2024-03-28T05:01:00.011Z,25.96
2024-03-28T05:02:00.035Z,25.97
2024-03-28T05:03:00.041Z,25.97
2024-03-28T05:04:00.055Z,26.02
2024-03-28T05:05:00.058Z,25.97
2024-03-28T05:06:00.043Z,25.96
2024-03-28T05:07:00.047Z,25.97
2024-03-28T05:08:00.051Z,25.97
2024-03-28T05:09:00.055Z,25.96
2024-03-28T05:10:00.044Z,25.97
2024-03-28T05:11:00.029Z,25.96
2024-03-28T05:12:00.048Z,25.97
2024-03-28T05:13:00.045Z,25.99
2024-03-28T05:14:00.064Z,25.96
2024-03-28T05:15:00.159Z,25.99
2024-03-28T05:16:00.204Z,25.97
2024-03-28T05:17:00.258Z,25.99
2024-03-28T05:18:00.373Z,25.97
2024-03-28T05:19:00.454Z,25.99
2024-03-28T05:20:00.563Z,25.97
2024-03-28T05:21:00.635Z,25.96
2024-03-28T05:22:00.772Z,25.97
2024-03-28T05:23:00.867Z,26.02
2024-03-28T05:24:00.868Z,25.97
2024-03-28T05:25:00.979Z,25.99
2024-03-28T05:26:01.060Z,25.99
2024-03-28T05:27:01.118Z,26.00
2024-03-28T05:28:01.259Z,25.97
2024-03-28T05:29:01.287Z,26.02
2024-03-28T05:30:01.368Z,26.00
2024-03-28T05:31:01.446Z,26.02
2024-03-28T05:32:01.524Z,26.02
2024-03-28T05:33:01.638Z,25.99
2024-03-28T05:34:01.692Z,26.02
2024-03-28T05:35:01.779Z,26.00
2024-03-28T05:36:01.858Z,26.00
2024-03-28T05:37:01.966Z,26.02
2024-03-28T05:38:02.036Z,26.00
2024-03-28T05:39:02.092Z,26.02
2024-03-28T05:40:02.176Z,26.03
2024-03-28T05:41:02.239Z,26.02
2024-03-28T05:42:02.326Z,26.02
2024-03-28T05:43:02.418Z,26.00
2024-03-28T05:44:02.492Z,26.00
2024-03-28T05:45:02.565Z,26.02
2024-03-28T05:46:02.669Z,26.02
2024-03-28T05:47:02.761Z,26.03
2024-03-28T05:48:02.822Z,26.03
2024-03-28T05:49:02.883Z,26.03
2024-03-28T05:50:02.969Z,26.02
2024-03-28T05:51:03.028Z,26.03
2024-03-28T05:52:03.134Z,26.03
2024-03-28T05:53:03.337Z,26.04
2024-03-28T05:54:03.330Z,26.06
2024-03-28T05:55:03.415Z,26.04
2024-03-28T05:56:03.443Z,26.03
2024-03-28T05:57:03.521Z,26.03
2024-03-28T05:58:03.632Z,26.04
2024-03-28T05:59:03.688Z,26.04
2024-03-28T06:00:03.785Z,26.03
2024-03-28T06:01:03.852Z,26.04
2024-03-28T06:02:03.918Z,26.06
2024-03-28T06:03:04.120Z,26.06
2024-03-28T06:04:04.155Z,26.02
2024-03-28T06:05:04.148Z,26.06
2024-03-28T06:06:04.233Z,26.06
2024-03-28T06:07:04.325Z,26.07
2024-03-28T06:08:04.391Z,26.06
2024-03-28T06:09:04.478Z,26.06
2024-03-28T06:10:04.562Z,26.03
2024-03-28T06:11:04.641Z,26.06
2024-03-28T06:12:04.698Z,26.09
2024-03-28T06:13:04.789Z,26.04
2024-03-28T06:14:04.864Z,26.06
2024-03-28T06:15:05.069Z,26.06
2024-03-28T06:16:05.022Z,26.07
2024-03-28T06:17:05.076Z,26.07
2024-03-28T06:18:05.179Z,26.06
2024-03-28T06:19:05.286Z,26.06
2024-03-28T06:20:05.352Z,26.07
2024-03-28T06:21:05.398Z,26.06
2024-03-28T06:22:05.510Z,26.06
2024-03-28T06:23:05.615Z,26.04
2024-03-28T06:24:05.704Z,26.09
2024-03-28T06:25:05.766Z,26.06
2024-03-28T06:26:05.881Z,26.07
2024-03-28T06:27:05.984Z,26.09
2024-03-28T06:28:06.035Z,26.09
2024-03-28T06:29:06.092Z,26.09
2024-03-28T06:30:06.206Z,26.10
2024-03-28T06:31:06.243Z,26.07
2024-03-28T06:32:06.328Z,26.12
2024-03-28T06:33:06.419Z,26.10
2024-03-28T06:34:06.487Z,26.10
2024-03-28T06:35:06.575Z,26.09
2024-03-28T06:36:06.682Z,26.09
2024-03-28T06:37:06.727Z,26.10
2024-03-28T06:38:06.837Z,26.13
2024-03-28T06:39:06.908Z,26.10
2024-03-28T06:40:06.995Z,26.12
2024-03-28T06:41:07.076Z,26.10
2024-03-28T06:42:07.213Z,26.12
2024-03-28T06:43:07.261Z,26.10
2024-03-28T06:44:07.361Z,26.13
2024-03-28T06:45:07.357Z,26.12
2024-03-28T06:46:07.451Z,26.13
2024-03-28T06:47:07.541Z,26.13
2024-03-28T06:48:07.651Z,26.12
2024-03-28T06:49:07.677Z,26.16
2024-03-28T06:50:07.735Z,26.12
2024-03-28T06:51:07.838Z,26.13
2024-03-28T06:52:07.942Z,26.13
2024-03-28T06:53:08.042Z,26.13
2024-03-28T06:54:08.096Z,26.16
2024-03-28T06:55:08.187Z,26.15
2024-03-28T06:56:08.316Z,26.15
2024-03-28T06:57:08.355Z,26.15
2024-03-28T06:58:08.440Z,26.15
2024-03-28T06:59:08.491Z,26.15
2024-03-28T07:00:08.609Z,26.16
2024-03-28T07:01:08.626Z,26.17
2024-03-28T07:02:08.725Z,26.16
2024-03-28T07:03:09.028Z,26.17
2024-03-28T07:04:08.893Z,26.16
2024-03-28T07:05:08.967Z,26.16
2024-03-28T07:06:13.668Z,26.19
2024-03-28T07:07:10.046Z,26.17
2024-03-28T07:08:09.074Z,26.16
2024-03-28T07:09:09.073Z,26.19
2024-03-28T07:10:09.087Z,26.16
2024-03-28T07:11:09.087Z,26.17
2024-03-28T07:12:09.089Z,26.19
2024-03-28T07:13:09.062Z,26.19
2024-03-28T07:14:09.072Z,26.17
2024-03-28T07:15:09.090Z,26.16
2024-03-28T07:16:09.152Z,26.17
2024-03-28T07:17:09.131Z,26.20
2024-03-28T07:18:09.203Z,26.20
2024-03-28T07:19:09.306Z,26.19
2024-03-28T07:20:09.361Z,26.19
2024-03-28T07:21:09.481Z,26.19
2024-03-28T07:22:09.524Z,26.20
2024-03-28T07:23:09.625Z,26.19
2024-03-28T07:24:09.670Z,26.19
2024-03-28T07:25:09.770Z,26.20
2024-03-28T07:26:09.842Z,26.22
2024-03-28T07:27:09.936Z,26.19
2024-03-28T07:28:10.020Z,26.22
2024-03-28T07:29:10.106Z,26.23
2024-03-28T07:30:10.167Z,26.19
2024-03-28T07:31:10.250Z,26.20
2024-03-28T07:32:10.330Z,26.22
2024-03-28T07:33:10.380Z,26.17
2024-03-28T07:34:10.435Z,26.23
2024-03-28T07:35:10.533Z,26.23
2024-03-28T07:36:10.590Z,26.24
2024-03-28T07:37:10.675Z,26.27
2024-03-28T07:38:10.763Z,26.26
2024-03-28T07:39:10.851Z,26.26
2024-03-28T07:40:10.963Z,26.26
2024-03-28T07:41:10.997Z,26.27
2024-03-28T07:42:11.053Z,26.30
2024-03-28T07:43:11.175Z,26.26
2024-03-28T07:44:11.261Z,26.27
2024-03-28T07:45:11.300Z,26.24
2024-03-28T07:46:11.390Z,26.24
2024-03-28T07:47:11.453Z,26.29
2024-03-28T07:48:11.550Z,26.27
2024-03-28T07:49:11.597Z,26.29
2024-03-28T07:50:11.810Z,26.27
2024-03-28T07:51:11.770Z,26.27
2024-03-28T07:52:11.856Z,26.27
2024-03-28T07:53:11.965Z,26.27
2024-03-28T07:54:12.002Z,26.29
2024-03-28T07:55:12.260Z,26.27
2024-03-28T07:56:12.151Z,26.27
2024-03-28T07:57:12.182Z,26.30
2024-03-28T07:58:12.242Z,26.30
2024-03-28T07:59:12.276Z,26.29
2024-03-28T08:00:12.351Z,26.30
2024-03-28T08:01:12.423Z,26.31
2024-03-28T08:02:12.541Z,26.30
2024-03-28T08:03:12.612Z,26.30
2024-03-28T08:04:12.694Z,26.30
2024-03-28T08:05:12.802Z,26.30
2024-03-28T08:06:12.912Z,26.34
2024-03-28T08:07:12.928Z,26.31
2024-03-28T08:08:13.055Z,26.31
2024-03-28T08:09:14.582Z,26.31
2024-03-28T08:10:13.135Z,26.34
2024-03-28T08:11:13.219Z,26.33
2024-03-28T08:12:13.214Z,26.34
2024-03-28T08:13:13.333Z,26.33
2024-03-28T08:14:13.297Z,26.33
2024-03-28T08:15:13.331Z,26.34
2024-03-28T08:16:13.382Z,26.34
2024-03-28T08:17:15.325Z,26.34
2024-03-28T08:18:13.461Z,26.33
2024-03-28T08:19:13.483Z,26.34
2024-03-28T08:20:13.499Z,26.34
2024-03-28T08:21:13.554Z,26.34
2024-03-28T08:22:13.658Z,26.34
2024-03-28T08:23:13.711Z,26.36
2024-03-28T08:24:13.779Z,26.36
2024-03-28T08:25:13.925Z,26.36
2024-03-28T08:26:13.967Z,26.34
2024-03-28T08:27:14.114Z,26.36
2024-03-28T08:28:14.141Z,26.36
2024-03-28T08:29:14.196Z,26.36
2024-03-28T08:30:14.290Z,26.39
2024-03-28T08:31:14.339Z,26.39
2024-03-28T08:32:14.412Z,26.39
2024-03-28T08:33:14.561Z,26.37
2024-03-28T08:34:14.628Z,26.37
2024-03-28T08:35:14.707Z,26.36
2024-03-28T08:36:14.800Z,26.37
2024-03-28T08:37:17.355Z,26.39
2024-03-28T08:38:15.661Z,26.39
2024-03-28T08:39:14.867Z,26.37
2024-03-28T08:40:14.900Z,26.37
2024-03-28T08:41:14.913Z,26.36
2024-03-28T08:42:14.893Z,26.39
2024-03-28T08:43:14.899Z,26.37
2024-03-28T08:44:14.901Z,26.39
2024-03-28T08:45:14.917Z,26.40
2024-03-28T08:46:14.888Z,26.40
2024-03-28T08:47:14.886Z,26.39
2024-03-28T08:48:14.934Z,26.40
2024-03-28T08:49:15.370Z,26.40
2024-03-28T08:50:14.974Z,26.40
2024-03-28T08:51:14.928Z,26.37
2024-03-28T08:52:14.948Z,26.40
2024-03-28T08:53:14.932Z,26.41
2024-03-28T08:54:14.949Z,26.40
2024-03-28T08:55:14.941Z,26.41
2024-03-28T08:56:14.945Z,26.40
2024-03-28T08:57:14.925Z,26.40
2024-03-28T08:58:14.995Z,26.41
2024-03-28T08:59:14.935Z,26.40
2024-03-28T09:00:15.018Z,26.41
2024-03-28T09:01:15.112Z,26.40
2024-03-28T09:02:15.207Z,26.40
2024-03-28T09:03:15.300Z,26.41
2024-03-28T09:04:15.390Z,26.40
2024-03-28T09:05:15.461Z,26.43
2024-03-28T09:06:15.555Z,26.40
2024-03-28T09:07:15.636Z,26.40
2024-03-28T09:08:15.740Z,26.41
2024-03-28T09:09:15.823Z,26.41
2024-03-28T09:10:16.074Z,26.43
2024-03-28T09:11:15.975Z,26.41
2024-03-28T09:12:17.293Z,26.41
2024-03-28T09:13:16.192Z,26.40
2024-03-28T09:14:16.190Z,26.40
2024-03-28T09:15:16.216Z,26.40
2024-03-28T09:16:16.248Z,26.41
2024-03-28T09:17:16.366Z,26.41
2024-03-28T09:18:16.332Z,26.41
2024-03-28T09:19:16.356Z,26.44
2024-03-28T09:20:16.408Z,26.39
2024-03-28T09:21:16.445Z,26.41
2024-03-28T09:22:16.447Z,26.41
2024-03-28T09:23:16.574Z,26.41
2024-03-28T09:24:16.555Z,26.43
2024-03-28T09:25:16.714Z,26.41
2024-03-28T09:26:16.727Z,26.41
2024-03-28T09:27:16.900Z,26.41
2024-03-28T09:28:16.946Z,26.39
2024-03-28T09:29:17.012Z,26.41
2024-03-28T09:30:17.113Z,26.41
2024-03-28T09:31:17.228Z,26.39
2024-03-28T09:32:17.309Z,26.41
2024-03-28T09:33:17.393Z,26.43
2024-03-28T09:34:17.470Z,26.40
2024-03-28T09:35:17.548Z,26.40
2024-03-28T09:36:21.519Z,26.41
2024-03-28T09:37:17.651Z,26.43
2024-03-28T09:38:17.672Z,26.40
2024-03-28T09:39:17.643Z,26.40
2024-03-28T09:40:17.671Z,26.43
2024-03-28T09:41:17.652Z,26.41
2024-03-28T09:42:17.657Z,26.41
2024-03-28T09:43:17.687Z,26.39
2024-03-28T09:44:17.659Z,26.41
2024-03-28T09:45:17.661Z,26.39
2024-03-28T09:46:17.635Z,26.41
2024-03-28T09:47:17.677Z,26.40
2024-03-28T09:48:17.689Z,26.39
2024-03-28T09:49:17.704Z,26.41
2024-03-28T09:50:17.736Z,26.40
2024-03-28T09:51:17.709Z,26.41
2024-03-28T09:52:17.715Z,26.43
2024-03-28T09:53:17.771Z,26.41
2024-03-28T09:54:17.729Z,26.44
2024-03-28T09:55:17.714Z,26.41
2024-03-28T09:56:17.743Z,26.43
2024-03-28T09:57:17.764Z,26.46
2024-03-28T09:58:17.734Z,26.44
2024-03-28T09:59:17.726Z,26.46
2024-03-28T10:00:17.700Z,26.47
2024-03-28T10:01:17.747Z,26.47
2024-03-28T10:02:17.715Z,26.48
2024-03-28T10:03:17.734Z,26.48
2024-03-28T10:04:17.723Z,26.50
2024-03-28T10:05:17.805Z,26.50
2024-03-28T10:06:17.997Z,26.51
2024-03-28T10:07:17.998Z,26.51
2024-03-28T10:08:18.132Z,26.52
2024-03-28T10:09:18.249Z,26.50
2024-03-28T10:10:18.309Z,26.52
2024-03-28T10:11:18.419Z,26.54
2024-03-28T10:12:18.522Z,26.54
2024-03-28T10:13:18.615Z,26.55
2024-03-28T10:14:18.747Z,26.52
2024-03-28T10:15:18.822Z,26.57
2024-03-28T10:16:18.915Z,26.52
2024-03-28T10:17:19.017Z,26.55
2024-03-28T10:18:19.166Z,26.55
2024-03-28T10:19:19.229Z,26.52
2024-03-28T10:20:19.346Z,26.55
2024-03-28T10:21:19.452Z,26.54
2024-03-28T10:22:19.527Z,26.54
2024-03-28T10:23:19.634Z,26.57
2024-03-28T10:24:19.746Z,26.54
2024-03-28T10:25:19.817Z,26.55
2024-03-28T10:26:19.940Z,26.57
2024-03-28T10:27:20.033Z,26.54
2024-03-28T10:28:20.120Z,26.55
2024-03-28T10:29:20.210Z,26.57
2024-03-28T10:30:20.329Z,26.55
2024-03-28T10:31:20.395Z,26.55
2024-03-28T10:32:20.463Z,26.52
2024-03-28T10:33:20.626Z,26.52
2024-03-28T10:34:20.747Z,26.52
2024-03-28T10:35:20.860Z,26.54
2024-03-28T10:36:20.877Z,26.55
2024-03-28T10:37:22.035Z,26.54
2024-03-28T10:38:21.174Z,26.52
2024-03-28T10:39:21.177Z,26.51
2024-03-28T10:40:21.309Z,26.52
2024-03-28T10:41:21.392Z,26.52
2024-03-28T10:42:21.504Z,26.52
2024-03-28T10:43:24.029Z,26.51
2024-03-28T10:44:21.567Z,26.54
2024-03-28T10:45:21.557Z,26.54
2024-03-28T10:46:21.578Z,26.52
2024-03-28T10:47:21.560Z,26.51
2024-03-28T10:48:21.579Z,26.54
2024-03-28T10:49:21.603Z,26.52
2024-03-28T10:50:21.584Z,26.52
2024-03-28T10:51:21.651Z,26.52
2024-03-28T10:52:21.578Z,26.54
2024-03-28T10:53:21.593Z,26.54
2024-03-28T10:54:23.406Z,26.54
2024-03-28T10:55:21.578Z,26.54
2024-03-28T10:56:21.635Z,26.55
2024-03-28T10:57:21.554Z,26.55
2024-03-28T10:58:21.601Z,26.54
2024-03-28T10:59:21.570Z,26.60
2024-03-28T11:00:21.602Z,26.58
2024-03-28T11:01:21.551Z,26.60
2024-03-28T11:02:21.575Z,26.58
2024-03-28T11:03:21.583Z,26.58
2024-03-28T11:04:21.598Z,26.58
2024-03-28T11:05:21.594Z,26.58
2024-03-28T11:06:21.651Z,26.58
2024-03-28T11:07:21.758Z,26.57
2024-03-28T11:08:21.930Z,26.60
2024-03-28T11:09:21.919Z,26.58
2024-03-28T11:10:22.098Z,26.57
2024-03-28T11:11:22.133Z,26.58
2024-03-28T11:12:22.234Z,26.57
2024-03-28T11:13:23.860Z,26.58
2024-03-28T11:14:22.376Z,26.57
2024-03-28T11:15:22.404Z,26.58
2024-03-28T11:16:22.400Z,26.60
2024-03-28T11:17:22.457Z,26.57
2024-03-28T11:18:22.542Z,26.57
2024-03-28T11:19:22.488Z,26.57
2024-03-28T11:20:22.595Z,26.57
2024-03-28T11:21:22.679Z,26.55
2024-03-28T11:22:22.780Z,26.54
2024-03-28T11:23:22.912Z,26.55
2024-03-28T11:24:22.999Z,26.52
2024-03-28T11:25:23.091Z,26.55
2024-03-28T11:26:23.154Z,26.54
2024-03-28T11:27:24.285Z,26.54
2024-03-28T11:28:23.352Z,26.54
2024-03-28T11:29:23.327Z,26.51
2024-03-28T11:30:23.472Z,26.50
2024-03-28T11:31:23.411Z,26.51
2024-03-28T11:32:23.468Z,26.50
2024-03-28T11:33:23.573Z,26.51
2024-03-28T11:34:23.694Z,26.52
2024-03-28T11:35:23.745Z,26.50
2024-03-28T11:36:23.866Z,26.50
2024-03-28T11:37:23.955Z,26.48
2024-03-28T11:38:24.070Z,26.50
2024-03-28T11:39:24.183Z,26.48
2024-03-28T11:40:24.460Z,26.48
2024-03-28T11:41:24.357Z,26.48
2024-03-28T11:42:32.399Z,26.46
2024-03-28T11:43:25.488Z,26.48
2024-03-28T11:44:24.474Z,26.47
2024-03-28T11:45:24.474Z,26.47
2024-03-28T11:46:24.462Z,26.50
2024-03-28T11:47:24.566Z,26.47
2024-03-28T11:48:24.490Z,26.50
2024-03-28T11:49:24.503Z,26.50
2024-03-28T11:50:27.376Z,26.50
2024-03-28T11:51:24.519Z,26.50
2024-03-28T11:52:24.450Z,26.47
2024-03-28T11:53:24.522Z,26.50
2024-03-28T11:54:24.501Z,26.50
2024-03-28T11:55:24.493Z,26.50
2024-03-28T11:56:24.482Z,26.52
2024-03-28T11:57:25.250Z,26.52
2024-03-28T11:58:24.487Z,26.51
2024-03-28T11:59:24.464Z,26.51
2024-03-28T12:00:24.499Z,26.51
2024-03-28T12:01:24.548Z,26.52
2024-03-28T12:02:24.501Z,26.54
2024-03-28T12:03:24.497Z,26.50
2024-03-28T12:04:24.503Z,26.51
2024-03-28T12:05:24.493Z,26.51
2024-03-28T12:06:24.520Z,26.52
2024-03-28T12:07:24.556Z,26.52
2024-03-28T12:08:29.471Z,26.52
2024-03-28T12:09:25.493Z,26.55
2024-03-28T12:10:24.503Z,26.58
2024-03-28T12:11:24.526Z,26.55
2024-03-28T12:12:24.489Z,26.60
2024-03-28T12:13:24.548Z,26.57
2024-03-28T12:14:24.537Z,26.58
2024-03-28T12:15:24.539Z,26.60
2024-03-28T12:16:24.565Z,26.61
2024-03-28T12:17:24.568Z,26.60
2024-03-28T12:18:24.602Z,26.61
2024-03-28T12:19:24.663Z,26.58
2024-03-28T12:20:24.824Z,26.58
2024-03-28T12:21:24.873Z,26.60
2024-03-28T12:22:24.990Z,26.58
2024-03-28T12:23:25.082Z,26.60
2024-03-28T12:24:25.200Z,26.61
2024-03-28T12:25:25.315Z,26.60
2024-03-28T12:26:29.761Z,26.61
2024-03-28T12:27:27.257Z,26.60
2024-03-28T12:28:25.402Z,26.58
2024-03-28T12:29:25.386Z,26.61
2024-03-28T12:30:25.429Z,26.60
2024-03-28T12:31:26.246Z,26.62
2024-03-28T12:32:25.433Z,26.64
2024-03-28T12:33:25.422Z,26.64
2024-03-28T12:34:25.381Z,26.64
2024-03-28T12:35:25.426Z,26.62
2024-03-28T12:36:32.315Z,26.64
2024-03-28T12:37:30.024Z,26.61
2024-03-28T12:38:25.456Z,26.64
2024-03-28T12:39:25.461Z,26.64
2024-03-28T12:40:25.402Z,26.62
2024-03-28T12:41:25.409Z,26.61
2024-03-28T12:42:25.402Z,26.62
2024-03-28T12:43:25.471Z,26.62
2024-03-28T12:44:25.443Z,26.61
2024-03-28T12:45:25.451Z,26.64
2024-03-28T12:46:25.489Z,26.62
2024-03-28T12:47:25.439Z,26.64
2024-03-28T12:48:25.511Z,26.62
2024-03-28T12:49:25.473Z,26.61
2024-03-28T12:50:25.452Z,26.64
2024-03-28T12:51:25.446Z,26.62
2024-03-28T12:52:25.475Z,26.64
2024-03-28T12:53:25.500Z,26.67
2024-03-28T12:54:25.475Z,26.62
2024-03-28T12:55:25.465Z,26.64